createdAt,value
2018-04-06T00:01:50.311Z,8.73
2018-04-06T00:04:17.053Z,5.23
2018-04-06T00:06:43.793Z,4.97
2018-04-06T00:09:10.521Z,8.20
2018-04-06T00:11:37.262Z,6.70
2018-04-06T00:14:03.991Z,3.57
2018-04-06T00:16:30.720Z,5.40
2018-04-06T00:18:57.469Z,6.20
2018-04-06T00:21:24.233Z,4.67
2018-04-06T00:23:50.972Z,9.70
2018-04-06T00:26:17.706Z,3.97
2018-04-06T00:28:44.440Z,5.13
2018-04-06T00:31:11.201Z,4.77
2018-04-06T00:33:38.038Z,3.40
2018-04-06T00:36:04.766Z,3.90
2018-04-06T00:38:31.528Z,6.57
2018-04-06T00:40:58.255Z,3.70
2018-04-06T00:43:25.217Z,4.03
2018-04-06T00:45:51.953Z,3.50
2018-04-06T00:48:18.721Z,4.70
2018-04-06T00:50:45.480Z,3.83
2018-04-06T00:53:18.033Z,2.13
2018-04-06T00:55:44.905Z,3.20
2018-04-06T00:58:11.626Z,4.17
2018-04-06T01:00:38.352Z,4.67
2018-04-06T01:03:05.128Z,8.07
2018-04-06T01:05:31.883Z,3.10
2018-04-06T01:07:58.593Z,4.20
2018-04-06T01:10:25.334Z,5.33
2018-04-06T01:12:52.086Z,4.40
2018-04-06T01:15:18.902Z,5.40
2018-04-06T01:17:45.653Z,7.23
2018-04-06T01:20:12.792Z,3.63
2018-04-06T01:22:39.542Z,8.50
2018-04-06T01:25:06.269Z,10.37
2018-04-06T01:27:33.080Z,11.53
2018-04-06T01:29:59.814Z,7.30
2018-04-06T01:32:26.560Z,7.97
2018-04-06T01:34:53.287Z,9.80
2018-04-06T01:37:20.031Z,8.70
2018-04-06T01:39:46.892Z,7.90
2018-04-06T01:42:13.657Z,5.23
2018-04-06T01:44:40.424Z,10.17
2018-04-06T01:47:07.166Z,10.87
2018-04-06T01:49:33.893Z,11.13
2018-04-06T01:52:00.629Z,5.50
2018-04-06T01:54:27.395Z,7.57
2018-04-06T01:56:54.140Z,7.47
2018-04-06T01:59:20.874Z,8.50
2018-04-06T02:01:47.821Z,6.40
2018-04-06T02:04:14.589Z,8.40
2018-04-06T02:06:41.320Z,7.07
2018-04-06T02:09:08.057Z,11.73
2018-04-06T02:11:34.788Z,9.90
2018-04-06T02:14:01.558Z,6.70
2018-04-06T02:16:28.292Z,10.97
2018-04-06T02:18:55.028Z,8.27
2018-04-06T02:21:21.756Z,8.90
2018-04-06T02:23:48.519Z,5.90
2018-04-06T02:26:15.266Z,11.73
2018-04-06T02:28:42.004Z,3.43
2018-04-06T02:31:08.759Z,6.97
2018-04-06T02:33:35.501Z,2.10
2018-04-06T02:36:02.241Z,3.17
2018-04-06T02:38:28.970Z,4.80
2018-04-06T02:40:55.709Z,3.73
2018-04-06T02:43:23.117Z,1.10
2018-04-06T02:45:49.859Z,2.83
2018-04-06T02:48:16.647Z,2.20
2018-04-06T02:50:43.405Z,0.83
2018-04-06T02:53:10.142Z,1.33
2018-04-06T02:55:36.910Z,5.53
2018-04-06T02:58:03.761Z,6.43
2018-04-06T03:00:30.507Z,1.73
2018-04-06T03:02:57.240Z,4.50
2018-04-06T03:05:23.981Z,2.07
2018-04-06T03:07:50.720Z,1.57
2018-04-06T03:10:17.464Z,3.93
2018-04-06T03:12:44.200Z,4.47
2018-04-06T03:15:10.956Z,0.73
2018-04-06T03:17:37.723Z,7.23
2018-04-06T03:20:04.466Z,3.40
2018-04-06T03:22:31.257Z,5.37
2018-04-06T03:24:58.010Z,6.00
2018-04-06T03:27:24.793Z,4.80
2018-04-06T03:29:51.532Z,5.10
2018-04-06T03:32:18.264Z,5.80
2018-04-06T03:34:45.076Z,8.57
2018-04-06T03:37:11.933Z,4.20
2018-04-06T03:39:38.774Z,8.50
2018-04-06T03:42:07.523Z,4.23
2018-04-06T03:44:34.877Z,7.90
2018-04-06T03:47:01.642Z,4.73
2018-04-06T03:49:28.368Z,9.83
2018-04-06T03:51:55.116Z,3.80
2018-04-06T03:54:21.854Z,8.30
2018-04-06T03:56:48.596Z,6.47
2018-04-06T03:59:15.487Z,11.47
2018-04-06T04:01:42.485Z,4.83
2018-04-06T04:04:09.937Z,9.43
2018-04-06T04:06:36.789Z,5.43
2018-04-06T04:09:03.914Z,7.13
2018-04-06T04:11:30.665Z,4.77
2018-04-06T04:13:57.399Z,7.67
2018-04-06T04:16:24.165Z,9.23
2018-04-06T04:18:51.052Z,3.30
2018-04-06T04:21:17.812Z,6.57
2018-04-06T04:23:44.536Z,7.47
2018-04-06T04:26:11.268Z,1.93
2018-04-06T04:28:38.264Z,8.37
2018-04-06T04:31:05.008Z,6.70
2018-04-06T04:33:31.797Z,10.80
2018-04-06T04:35:58.579Z,5.60
2018-04-06T04:38:26.816Z,5.83
2018-04-06T04:40:53.578Z,5.50
2018-04-06T04:43:20.321Z,4.03
2018-04-06T04:45:47.057Z,2.13
2018-04-06T04:48:16.036Z,3.37
2018-04-06T04:50:42.795Z,2.77
2018-04-06T04:53:09.534Z,5.63
2018-04-06T04:55:36.352Z,2.97
2018-04-06T04:58:03.098Z,4.07
2018-04-06T05:00:29.838Z,7.07
2018-04-06T05:02:56.584Z,3.10
2018-04-06T05:05:23.320Z,3.40
2018-04-06T05:07:50.629Z,3.60
2018-04-06T05:10:17.434Z,7.63
2018-04-06T05:12:44.205Z,16.07
2018-04-06T05:15:10.970Z,3.97
2018-04-06T05:17:39.113Z,5.97
2018-04-06T05:20:06.944Z,7.90
2018-04-06T05:22:38.772Z,5.43
2018-04-06T05:25:05.585Z,4.30
2018-04-06T05:27:32.355Z,7.93
2018-04-06T05:29:59.234Z,15.17
2018-04-06T05:32:26.870Z,4.27
2018-04-06T05:34:53.588Z,3.63
2018-04-06T05:37:20.564Z,2.53
2018-04-06T05:39:47.343Z,6.20
2018-04-06T05:42:14.104Z,1.20
2018-04-06T05:44:41.522Z,4.53
2018-04-06T05:47:08.262Z,5.13
2018-04-06T05:49:35.026Z,4.30
2018-04-06T05:52:01.776Z,2.47
2018-04-06T05:54:28.562Z,1.17
2018-04-06T05:56:55.464Z,4.57
2018-04-06T05:59:22.189Z,4.80
2018-04-06T06:01:48.961Z,5.20
2018-04-06T06:04:15.727Z,2.23
2018-04-06T06:06:42.480Z,6.87
2018-04-06T06:09:09.432Z,6.03
2018-04-06T06:11:36.197Z,20.03
2018-04-06T06:14:02.987Z,3.10
2018-04-06T06:16:30.313Z,12.97
2018-04-06T06:18:57.100Z,5.27
2018-04-06T06:21:23.857Z,1.90
2018-04-06T06:23:50.729Z,4.60
2018-04-06T06:26:17.452Z,6.77
2018-04-06T06:28:45.144Z,4.93
2018-04-06T06:31:13.093Z,15.27
2018-04-06T06:33:40.702Z,10.33
2018-04-06T06:36:09.652Z,2.80
2018-04-06T06:38:38.035Z,23.33
2018-04-06T06:41:06.780Z,9.27
2018-04-06T06:59:49.091Z,5.40
2018-04-06T07:02:15.846Z,26.77
2018-04-06T07:04:42.571Z,6.27
2018-04-06T07:07:09.578Z,2.87
2018-04-06T07:09:36.353Z,7.83
2018-04-06T07:12:03.297Z,5.03
2018-04-06T07:14:30.058Z,17.13
2018-04-06T07:16:57.492Z,8.93
2018-04-06T07:19:24.236Z,10.53
2018-04-06T07:21:51.108Z,5.10
2018-04-06T07:24:17.941Z,6.07
2018-04-06T07:26:46.653Z,14.20
2018-04-06T07:29:13.440Z,14.43
2018-04-06T07:31:40.186Z,30.83
2018-04-06T07:34:06.948Z,6.57
2018-04-06T07:36:33.731Z,10.80
2018-04-06T07:39:00.495Z,4.50
2018-04-06T07:41:27.221Z,7.90
2018-04-06T07:43:54.929Z,3.13
2018-04-06T07:46:21.706Z,10.60
2018-04-06T07:48:48.487Z,14.83
2018-04-06T07:51:15.225Z,19.93
2018-04-06T07:53:41.965Z,9.40
2018-04-06T07:56:08.704Z,8.53
2018-04-06T07:58:35.468Z,4.03
2018-04-06T08:01:02.192Z,11.33
2018-04-06T08:03:28.936Z,3.73
2018-04-06T08:05:55.670Z,9.13
2018-04-06T08:08:22.452Z,15.57
2018-04-06T08:10:49.203Z,9.30
2018-04-06T08:13:16.037Z,4.40
2018-04-06T08:15:42.792Z,4.10
2018-04-06T08:18:09.524Z,14.23
2018-04-06T08:20:36.252Z,4.67
2018-04-06T08:23:03.001Z,10.37
2018-04-06T08:25:29.748Z,7.50
2018-04-06T08:27:56.558Z,3.43
2018-04-06T08:30:23.289Z,14.83
2018-04-06T08:32:50.062Z,6.53
2018-04-06T08:35:16.789Z,9.03
2018-04-06T08:37:43.583Z,6.53
2018-04-06T08:40:10.323Z,13.73
2018-04-06T08:42:37.079Z,12.50
2018-04-06T08:45:03.845Z,7.70
2018-04-06T08:47:30.582Z,6.17
2018-04-06T08:49:57.311Z,2.43
2018-04-06T08:52:24.025Z,10.10
2018-04-06T08:54:50.813Z,6.80
2018-04-06T08:57:17.533Z,5.93
2018-04-06T08:59:44.264Z,5.73
2018-04-06T09:02:11.001Z,5.40
2018-04-06T09:04:37.747Z,5.10
2018-04-06T09:07:04.491Z,3.10
2018-04-06T09:09:31.229Z,9.53
2018-04-06T09:11:59.691Z,7.30
2018-04-06T09:14:26.430Z,7.93
2018-04-06T09:16:53.202Z,8.23
2018-04-06T09:19:19.965Z,9.47
2018-04-06T09:21:46.703Z,10.30
2018-04-06T09:24:13.445Z,9.80
2018-04-06T09:26:40.233Z,20.17
2018-04-06T09:29:06.969Z,8.20
2018-04-06T09:31:33.677Z,8.30
2018-04-06T09:34:00.404Z,5.40
2018-04-06T09:36:27.401Z,8.33
2018-04-06T09:38:54.171Z,6.83
2018-04-06T09:41:20.899Z,4.67
2018-04-06T09:43:47.644Z,8.27
2018-04-06T09:46:14.423Z,11.33
2018-04-06T09:48:41.160Z,9.77
2018-04-06T09:51:07.972Z,6.80
2018-04-06T09:53:34.724Z,7.30
2018-04-06T09:56:01.467Z,6.10
2018-04-06T09:58:28.205Z,14.33
2018-04-06T10:00:58.770Z,7.17
2018-04-06T10:03:25.515Z,6.07
2018-04-06T10:05:52.248Z,6.30
2018-04-06T10:08:18.999Z,6.67
2018-04-06T10:10:45.787Z,11.37
2018-04-06T10:13:12.543Z,16.03
2018-04-06T10:15:39.299Z,4.93
2018-04-06T10:18:06.036Z,10.97
2018-04-06T10:20:32.768Z,6.37
2018-04-06T10:22:59.508Z,7.33
2018-04-06T10:25:26.253Z,8.40
2018-04-06T10:27:53.013Z,6.13
2018-04-06T10:30:19.731Z,9.23
2018-04-06T10:32:46.458Z,5.93
2018-04-06T10:35:13.213Z,4.57
2018-04-06T10:37:40.144Z,4.97
2018-04-06T10:40:06.890Z,4.60
2018-04-06T10:42:33.651Z,6.47
2018-04-06T10:45:00.376Z,5.10
2018-04-06T10:47:27.125Z,4.43
2018-04-06T10:49:53.896Z,2.27
2018-04-06T10:52:20.656Z,8.70
2018-04-06T10:54:47.376Z,4.63
2018-04-06T10:57:14.117Z,4.57
2018-04-06T10:59:40.896Z,6.07
2018-04-06T11:02:07.620Z,6.10
2018-04-06T11:04:34.340Z,8.47
2018-04-06T11:07:01.086Z,18.37
2018-04-06T11:09:27.824Z,13.50
2018-04-06T11:11:54.593Z,5.07
2018-04-06T11:14:21.353Z,26.03
2018-04-06T11:16:48.093Z,8.73
2018-04-06T11:19:14.868Z,14.33
2018-04-06T11:21:41.620Z,17.17
2018-04-06T11:24:08.394Z,13.73
2018-04-06T11:26:35.138Z,9.03
2018-04-06T11:29:01.904Z,9.43
2018-04-06T11:31:28.646Z,4.13
2018-04-06T11:33:55.384Z,10.53
2018-04-06T11:36:22.109Z,9.13
2018-04-06T11:38:48.841Z,13.63
2018-04-06T11:41:15.725Z,8.80
2018-04-06T11:43:42.484Z,6.93
2018-04-06T11:46:09.293Z,9.70
2018-04-06T11:48:36.009Z,8.13
2018-04-06T11:51:02.744Z,7.73
2018-04-06T11:53:29.494Z,13.30
2018-04-06T11:55:56.230Z,11.80
2018-04-06T11:58:22.976Z,6.80
2018-04-06T12:00:49.717Z,10.13
2018-04-06T12:03:16.476Z,7.77
2018-04-06T12:05:43.209Z,10.93
2018-04-06T12:08:09.929Z,8.17
2018-04-06T12:10:36.713Z,8.10
2018-04-06T12:13:03.535Z,5.20
2018-04-06T12:15:30.224Z,5.13
2018-04-06T12:17:56.936Z,10.93
2018-04-06T12:20:24.162Z,3.57
2018-04-06T12:22:50.906Z,5.90
2018-04-06T12:25:17.795Z,5.53
2018-04-06T12:27:44.538Z,6.97
2018-04-06T12:30:11.321Z,5.47
2018-04-06T12:32:38.059Z,8.80
2018-04-06T12:35:04.796Z,9.80
2018-04-06T12:37:31.553Z,5.10
2018-04-06T12:39:58.329Z,10.50
2018-04-06T12:42:25.073Z,10.60
2018-04-06T12:44:51.809Z,3.80
2018-04-06T12:47:18.581Z,8.67
2018-04-06T12:49:45.345Z,4.70
2018-04-06T12:52:12.077Z,10.03
2018-04-06T12:54:38.840Z,6.50
2018-04-06T12:57:05.603Z,6.47
2018-04-06T12:59:32.377Z,5.97
2018-04-06T13:01:59.148Z,4.83
2018-04-06T13:04:26.069Z,9.13
2018-04-06T13:06:53.618Z,8.13
2018-04-06T13:09:20.363Z,7.67
2018-04-06T13:11:47.088Z,12.47
2018-04-06T13:14:13.829Z,7.60
2018-04-06T13:16:40.574Z,6.07
2018-04-06T13:19:07.344Z,11.20
2018-04-06T13:21:34.097Z,3.57
2018-04-06T13:24:00.837Z,9.40
2018-04-06T13:26:27.567Z,9.43
2018-04-06T13:28:54.344Z,14.47
2018-04-06T13:31:21.120Z,7.23
2018-04-06T13:33:47.939Z,3.17
2018-04-06T13:36:14.698Z,7.40
2018-04-06T13:38:41.437Z,7.43
2018-04-06T13:41:08.204Z,9.43
2018-04-06T13:43:34.929Z,7.83
2018-04-06T13:46:01.669Z,9.37
2018-04-06T13:48:28.416Z,7.80
2018-04-06T13:50:55.177Z,9.13
2018-04-06T13:53:21.921Z,7.70
2018-04-06T13:55:48.689Z,3.50
2018-04-06T13:58:15.458Z,9.90
2018-04-06T14:00:43.011Z,8.23
2018-04-06T14:03:09.761Z,6.17
2018-04-06T14:05:36.487Z,4.77
2018-04-06T14:08:03.285Z,5.53
2018-04-06T14:10:30.049Z,6.27
2018-04-06T14:12:56.800Z,10.03
2018-04-06T14:15:23.544Z,9.03
2018-04-06T14:17:50.576Z,10.02
2018-04-06T14:20:17.383Z,9.20
2018-04-06T14:22:44.136Z,8.40
2018-04-06T14:25:11.627Z,18.50
2018-04-06T14:29:14.395Z,12.87
2018-04-06T14:31:41.212Z,7.97
2018-04-06T14:34:07.960Z,4.97
2018-04-06T14:36:34.701Z,3.47
2018-04-06T14:39:01.441Z,5.67
2018-04-06T14:41:28.202Z,7.60
2018-04-06T14:43:54.933Z,7.13
2018-04-06T14:46:21.715Z,8.43
2018-04-06T14:48:48.508Z,6.67
2018-04-06T14:51:15.294Z,4.30
2018-04-06T14:53:42.041Z,15.23
2018-04-06T14:56:08.752Z,8.17
2018-04-06T14:58:35.980Z,6.30
2018-04-06T15:01:03.495Z,5.80
2018-04-06T15:03:30.289Z,9.23
2018-04-06T15:05:57.383Z,9.13
2018-04-06T15:08:24.173Z,5.33
2018-04-06T15:10:51.101Z,5.33
2018-04-06T15:13:27.850Z,10.27
2018-04-06T15:15:54.628Z,6.93
2018-04-06T15:18:21.786Z,6.63
2018-04-06T15:20:48.598Z,6.33
2018-04-06T15:23:15.453Z,3.17
2018-04-06T15:25:44.388Z,5.33
2018-04-06T15:28:12.148Z,6.53
2018-04-06T15:30:39.370Z,4.33
2018-04-06T15:33:06.156Z,8.63
2018-04-06T15:35:33.206Z,5.60
2018-04-06T15:38:00.716Z,8.73
2018-04-06T15:40:27.499Z,7.00
2018-04-06T15:42:54.321Z,6.07
2018-04-06T15:45:21.183Z,14.07
2018-04-06T15:47:49.366Z,4.30
2018-04-06T15:50:17.182Z,5.23
2018-04-06T15:52:44.177Z,5.97
2018-04-06T15:55:10.948Z,4.43
2018-04-06T15:57:38.634Z,7.77
2018-04-06T16:00:10.372Z,6.67
2018-04-06T16:02:37.240Z,10.20
2018-04-06T16:05:04.146Z,12.13
2018-04-06T16:07:31.352Z,9.97
2018-04-06T16:09:58.376Z,7.27
2018-04-06T16:12:25.172Z,3.53
2018-04-06T16:14:52.067Z,8.60
2018-04-06T16:17:18.862Z,9.50
2018-04-06T16:19:45.824Z,11.37
2018-04-06T16:22:12.707Z,4.80
2018-04-06T16:24:39.816Z,7.63
2018-04-06T16:27:06.630Z,8.00
2018-04-06T16:29:33.527Z,5.60
2018-04-06T16:32:00.679Z,5.70
2018-04-06T16:34:27.810Z,12.27
2018-04-06T16:36:54.641Z,5.23
2018-04-06T16:39:21.434Z,15.43
2018-04-06T16:41:50.881Z,8.17
2018-04-06T16:44:18.802Z,7.43
2018-04-06T16:46:47.272Z,6.20
2018-04-06T16:49:14.084Z,11.90
2018-04-06T16:51:40.865Z,13.60
2018-04-06T16:54:18.043Z,5.47
2018-04-06T16:56:45.212Z,9.47
2018-04-06T16:59:12.102Z,15.07
2018-04-06T17:01:39.884Z,20.53
2018-04-06T17:04:07.546Z,5.27
2018-04-06T17:06:34.584Z,8.63
2018-04-06T17:09:01.447Z,6.57
2018-04-06T17:11:28.292Z,9.13
2018-04-06T17:13:56.335Z,10.00
2018-04-06T17:16:23.162Z,10.27
2018-04-06T17:18:50.685Z,10.87
2018-04-06T17:21:18.207Z,7.33
2018-04-06T17:23:45.111Z,9.10
2018-04-06T17:26:11.936Z,8.70
2018-04-06T17:28:38.840Z,12.00
2018-04-06T17:31:15.700Z,8.67
2018-04-06T17:33:42.570Z,16.43
2018-04-06T17:36:09.489Z,24.30
2018-04-06T17:38:36.277Z,13.37
2018-04-06T17:41:03.103Z,15.30
2018-04-06T17:43:30.835Z,10.80
2018-04-06T17:45:59.107Z,11.03
2018-04-06T17:48:26.477Z,13.30
2018-04-06T17:50:53.277Z,12.10
2018-04-06T17:53:20.050Z,13.67
2018-04-06T17:55:46.937Z,18.90
2018-04-06T17:58:14.162Z,20.40
2018-04-06T18:00:41.238Z,15.73
2018-04-06T18:03:08.476Z,19.70
2018-04-06T18:05:35.961Z,17.37
2018-04-06T18:10:55.183Z,19.00
2018-04-06T18:13:22.532Z,15.73
2018-04-06T18:15:49.414Z,14.63
2018-04-06T18:18:16.797Z,12.93
2018-04-06T18:20:44.429Z,9.43
2018-04-06T18:23:11.463Z,14.37
2018-04-06T18:25:38.221Z,18.53
2018-04-06T18:28:04.994Z,10.80
2018-04-06T18:30:31.874Z,11.57
2018-04-06T18:32:58.693Z,18.43
2018-04-06T18:35:25.507Z,10.50
2018-04-06T18:37:53.524Z,30.33
2018-04-06T18:40:21.084Z,33.50
2018-04-06T18:42:48.632Z,21.40
2018-04-06T18:45:15.474Z,30.23
2018-04-06T18:47:43.070Z,31.43
2018-04-06T18:50:09.935Z,18.97
2018-04-06T18:52:36.780Z,18.77
2018-04-06T18:55:05.741Z,20.67
2018-04-06T18:57:34.140Z,41.10
2018-04-06T19:00:00.975Z,36.87
2018-04-06T19:02:28.011Z,62.30
2018-04-06T19:04:54.799Z,304.70
2018-04-06T19:07:22.140Z,157.83
2018-04-06T19:09:49.212Z,115.27
2018-04-06T19:12:16.024Z,170.33
2018-04-06T19:14:53.708Z,138.93
2018-04-06T19:17:21.828Z,133.43
2018-04-06T19:19:49.169Z,161.37
2018-04-06T19:22:16.992Z,186.17
2018-04-06T19:24:43.872Z,147.13
2018-04-06T19:27:10.795Z,134.43
2018-04-06T19:29:38.504Z,87.13
2018-04-06T19:32:05.833Z,47.77
2018-04-06T19:34:33.636Z,56.20
2018-04-06T19:37:00.784Z,48.83
2018-04-06T19:39:28.361Z,54.90
2018-04-06T19:41:55.259Z,74.97
2018-04-06T19:44:23.558Z,92.00
2018-04-06T19:46:50.721Z,122.97
2018-04-06T19:49:18.188Z,207.17
2018-04-06T19:51:44.961Z,46.43
2018-04-06T19:54:13.452Z,41.37
2018-04-06T19:56:42.363Z,65.30
2018-04-06T19:59:09.197Z,73.80
2018-04-06T20:01:36.050Z,79.13
2018-04-06T20:04:03.893Z,117.87
2018-04-06T20:06:30.668Z,135.93
2018-04-06T20:08:57.472Z,171.13
2018-04-06T20:11:24.503Z,155.50
2018-04-06T20:13:51.345Z,158.93
2018-04-06T20:16:18.124Z,153.30
2018-04-06T20:18:45.987Z,137.67
2018-04-06T20:21:13.246Z,148.87
2018-04-06T20:23:40.140Z,408.63
2018-04-06T20:26:06.992Z,378.57
2018-04-06T20:28:43.914Z,356.13
2018-04-06T20:33:50.371Z,326.00
2018-04-06T20:36:17.521Z,191.00
2018-04-06T20:38:44.370Z,129.43
2018-04-06T20:41:12.752Z,101.37
2018-04-06T20:43:39.926Z,478.30
2018-04-06T20:46:06.869Z,124.47
2018-04-06T20:48:34.608Z,82.10
2018-04-06T20:51:02.550Z,84.73
2018-04-06T20:53:29.375Z,62.70
2018-04-06T20:55:56.292Z,55.60
2018-04-06T20:58:23.429Z,60.37
2018-04-06T21:00:50.270Z,58.63
2018-04-06T21:03:17.960Z,64.30
2018-04-06T21:05:44.751Z,61.70
2018-04-06T21:08:12.982Z,37.17
2018-04-06T21:10:39.813Z,39.77
2018-04-06T21:13:09.484Z,47.23
2018-04-06T21:15:39.168Z,38.37
2018-04-06T21:18:08.506Z,31.57
2018-04-06T21:20:36.128Z,35.13
2018-04-06T21:23:03.501Z,49.57
2018-04-06T21:25:31.592Z,51.07
2018-04-06T21:28:00.664Z,38.60
2018-04-06T21:40:39.115Z,44.37
2018-04-06T21:43:07.264Z,40.97
2018-04-06T21:45:34.229Z,54.67
2018-04-06T21:50:44.500Z,57.53
2018-04-06T21:53:12.514Z,114.30
2018-04-06T21:55:42.084Z,59.67
2018-04-06T21:58:09.012Z,57.33
2018-04-06T22:00:36.094Z,53.30
2018-04-06T22:03:03.389Z,64.57
2018-04-06T22:05:30.232Z,80.70
2018-04-06T22:07:57.404Z,67.30
2018-04-06T22:10:25.211Z,86.33
2018-04-06T22:12:52.605Z,60.33
2018-04-06T22:15:22.467Z,50.07
2018-04-06T22:20:43.493Z,55.77
2018-04-06T22:23:10.873Z,54.60
2018-04-06T22:25:38.885Z,59.30
2018-04-06T22:28:05.652Z,60.17
2018-04-06T22:30:33.103Z,65.90
2018-04-06T22:33:00.229Z,55.10
2018-04-06T22:35:27.757Z,57.87
2018-04-06T22:37:54.623Z,59.00
2018-04-06T22:40:22.253Z,57.40
2018-04-06T22:42:49.756Z,84.07
2018-04-06T22:45:16.576Z,57.53
2018-04-06T22:47:43.633Z,55.53
2018-04-06T22:50:11.155Z,70.47
2018-04-06T22:52:38.541Z,83.50
2018-04-06T22:55:05.333Z,108.20
2018-04-06T22:57:32.748Z,66.50
2018-04-06T23:00:05.072Z,49.60
2018-04-06T23:02:36.781Z,56.27
2018-04-06T23:08:25.092Z,125.37
2018-04-06T23:11:13.398Z,76.50
2018-04-06T23:13:44.949Z,73.33
2018-04-06T23:16:11.817Z,75.43
2018-04-06T23:18:49.958Z,77.23
2018-04-06T23:21:17.264Z,79.90
2018-04-06T23:23:44.504Z,84.40
2018-04-06T23:26:11.317Z,91.00
2018-04-06T23:28:38.120Z,86.47
2018-04-06T23:31:05.031Z,85.30
2018-04-06T23:33:32.938Z,85.03
2018-04-06T23:35:59.752Z,81.70
2018-04-06T23:38:26.530Z,78.73
2018-04-06T23:40:54.251Z,69.30
2018-04-06T23:43:22.192Z,84.03
2018-04-06T23:45:48.971Z,88.53
2018-04-06T23:48:16.054Z,81.13
2018-04-06T23:50:42.872Z,77.97
2018-04-06T23:53:11.478Z,79.60
2018-04-06T23:55:39.637Z,89.53
2018-04-06T23:58:06.401Z,89.40
